createdAt,value
2017-10-25T13:38:20.484Z,973.43
2017-10-25T13:39:29.550Z,973.48
2017-10-25T13:40:38.588Z,973.49
2017-10-25T13:41:47.623Z,973.55
2017-10-25T13:42:56.322Z,973.53
2017-10-25T13:44:05.681Z,973.45
2017-10-25T13:45:15.058Z,973.46
2017-10-25T13:46:24.749Z,973.38
2017-10-25T13:47:33.448Z,973.35
2017-10-25T13:48:42.479Z,973.4
2017-10-25T13:49:51.510Z,973.43
2017-10-25T13:51:00.207Z,973.44
2017-10-25T13:52:09.566Z,973.43
2017-10-25T13:53:18.931Z,973.44
2017-10-25T13:54:28.300Z,973.46
2017-10-25T13:55:37.666Z,973.48
2017-10-25T13:56:46.691Z,973.49
2017-10-25T13:57:55.386Z,973.42
2017-10-25T13:59:04.750Z,973.53
2017-10-25T14:00:13.449Z,973.47
2017-10-25T14:01:22.830Z,973.49
2017-10-25T14:02:32.195Z,973.51
2017-10-25T14:03:41.222Z,973.54
2017-10-25T14:04:50.258Z,973.53
2017-10-25T14:05:59.295Z,973.54
2017-10-25T14:07:08.320Z,973.51
2017-10-25T14:08:17.021Z,973.45
2017-10-25T14:09:26.731Z,973.46
2017-10-25T14:10:35.427Z,973.39
2017-10-25T14:11:44.785Z,973.43
2017-10-25T14:12:53.815Z,973.39
2017-10-25T14:14:03.181Z,973.47
2017-10-25T14:15:12.207Z,973.42
2017-10-25T14:16:21.238Z,973.46
2017-10-25T14:17:30.266Z,973.44
2017-10-25T14:18:39.296Z,973.46
2017-10-25T14:19:47.994Z,973.42
2017-10-25T14:20:57.368Z,973.36
2017-10-25T14:22:06.398Z,973.37
2017-10-25T14:23:15.099Z,973.37
2017-10-25T14:24:23.799Z,973.42
2017-10-25T14:25:32.826Z,973.4
2017-10-25T14:26:42.525Z,973.44
2017-10-25T14:27:51.894Z,973.43
2017-10-25T14:29:00.973Z,973.4
2017-10-25T14:30:10.335Z,973.41
2017-10-25T14:31:19.693Z,973.4
2017-10-25T14:32:29.057Z,973.36
2017-10-25T14:33:38.102Z,973.35
2017-10-25T14:34:47.133Z,973.4
2017-10-25T14:35:56.166Z,973.34
2017-10-25T14:37:05.195Z,973.28
2017-10-25T14:38:14.898Z,973.31
2017-10-25T14:39:23.926Z,973.37
2017-10-25T14:40:32.963Z,973.32
2017-10-25T14:41:41.995Z,973.36
2017-10-25T14:42:51.020Z,973.43
2017-10-25T14:44:00.382Z,973.39
2017-10-25T14:45:09.407Z,973.38
2017-10-25T14:46:18.435Z,973.42
2017-10-25T14:47:28.133Z,973.43
2017-10-25T14:48:38.176Z,973.46
2017-10-25T14:49:47.885Z,973.47
2017-10-25T14:50:57.243Z,973.58
2017-10-25T14:52:06.935Z,973.54
2017-10-25T14:53:15.632Z,973.61
2017-10-25T14:54:25.377Z,973.63
2017-10-25T14:55:34.409Z,973.64
2017-10-25T14:56:43.442Z,973.64
2017-10-25T14:57:52.804Z,973.68
2017-10-25T14:59:01.845Z,973.61
2017-10-25T15:00:10.876Z,973.61
2017-10-25T15:01:20.589Z,973.66
2017-10-25T15:02:29.951Z,973.69
2017-10-25T15:03:38.980Z,973.74
2017-10-25T15:04:47.688Z,973.72
2017-10-25T15:05:57.055Z,973.73
2017-10-25T15:07:06.093Z,973.73
2017-10-25T15:08:15.789Z,973.72
2017-10-25T15:09:24.822Z,973.75
2017-10-25T15:10:34.191Z,973.75
2017-10-25T15:11:43.216Z,973.73
2017-10-25T15:12:52.244Z,973.74
2017-10-25T15:14:01.613Z,973.73
2017-10-25T15:15:10.973Z,973.75
2017-10-25T15:16:19.668Z,973.76
2017-10-25T15:17:28.366Z,973.82
2017-10-25T15:18:38.067Z,973.81
2017-10-25T15:19:47.098Z,973.81
2017-10-25T15:20:55.800Z,973.8
2017-10-25T15:22:05.536Z,973.82
2017-10-25T15:23:14.901Z,973.84
2017-10-25T15:24:23.934Z,973.87
2017-10-25T15:25:33.296Z,973.89
2017-10-25T15:26:42.330Z,973.88
2017-10-25T15:27:51.364Z,973.91
2017-10-25T15:29:00.391Z,973.92
2017-10-25T15:30:09.422Z,973.93
2017-10-25T15:31:18.131Z,973.91
2017-10-25T15:32:27.494Z,973.98
2017-10-25T15:33:36.194Z,973.99
2017-10-25T15:34:44.889Z,974
2017-10-25T15:35:53.923Z,974.01
2017-10-25T15:37:03.296Z,973.99
2017-10-25T15:38:12.320Z,974.04
2017-10-25T15:39:21.358Z,974.03
2017-10-25T15:40:30.394Z,974.04
2017-10-25T15:41:39.430Z,974.07
2017-10-25T15:42:48.802Z,974.05
2017-10-25T15:43:58.177Z,974.05
2017-10-25T15:45:07.208Z,974.01
2017-10-25T15:46:16.241Z,974.04
2017-10-25T15:47:24.941Z,974.05
2017-10-25T15:48:34.634Z,974.04
2017-10-25T15:49:44.329Z,974.12
2017-10-25T15:50:53.026Z,974.17
2017-10-25T15:52:02.387Z,974.13
2017-10-25T15:53:12.081Z,974.16
2017-10-25T15:54:21.452Z,974.11
2017-10-25T15:55:30.492Z,974.12
2017-10-25T15:56:40.521Z,974.15
2017-10-25T15:57:49.899Z,974.16
2017-10-25T15:58:58.939Z,974.18
2017-10-25T16:00:07.969Z,974.16
2017-10-25T16:01:17.000Z,974.17
2017-10-25T16:02:27.031Z,974.18
2017-10-25T16:03:36.401Z,974.22
2017-10-25T16:04:45.771Z,974.21
2017-10-25T16:05:55.138Z,974.21
2017-10-25T16:07:04.170Z,974.25
2017-10-25T16:08:13.534Z,974.29
2017-10-25T16:09:22.898Z,974.31
2017-10-25T16:10:31.931Z,974.27
2017-10-25T16:11:41.299Z,974.29
2017-10-25T16:12:50.328Z,974.31
2017-10-25T16:13:59.356Z,974.36
2017-10-25T16:15:08.386Z,974.31
2017-10-25T16:16:17.757Z,974.29
2017-10-25T16:17:26.789Z,974.36
2017-10-25T16:18:36.157Z,974.35
2017-10-25T16:19:45.183Z,974.35
2017-10-25T16:20:54.874Z,974.37
2017-10-25T16:22:04.566Z,974.4
2017-10-25T16:23:13.930Z,974.32
2017-10-25T16:24:22.967Z,974.35
2017-10-25T16:25:32.343Z,974.32
2017-10-25T16:26:41.373Z,974.35
2017-10-25T16:27:50.793Z,974.32
2017-10-25T16:29:00.494Z,974.32
2017-10-25T16:30:09.523Z,974.36
2017-10-25T16:31:18.554Z,974.33
2017-10-25T16:32:28.258Z,974.36
2017-10-25T16:33:37.292Z,974.35
2017-10-25T16:34:45.990Z,974.39
2017-10-25T16:35:55.020Z,974.37
2017-10-25T16:37:04.380Z,974.36
2017-10-25T16:38:13.747Z,974.44
2017-10-25T16:39:22.779Z,974.5
2017-10-25T16:40:31.815Z,974.51
2017-10-25T16:41:40.511Z,974.52
2017-10-25T16:42:49.541Z,974.5
2017-10-25T16:43:58.915Z,974.51
2017-10-25T16:45:07.950Z,974.55
2017-10-25T16:46:17.325Z,974.54
2017-10-25T16:47:26.362Z,974.58
2017-10-25T16:48:35.390Z,974.58
2017-10-25T16:49:44.089Z,974.57
2017-10-25T16:50:54.145Z,974.58
2017-10-25T16:52:02.845Z,974.63
2017-10-25T16:53:11.874Z,974.61
2017-10-25T16:54:20.572Z,974.57
2017-10-25T16:55:29.606Z,974.57
2017-10-25T16:56:38.630Z,974.58
2017-10-25T16:57:47.326Z,974.62
2017-10-25T16:58:57.032Z,974.63
2017-10-25T17:00:06.059Z,974.61
2017-10-25T17:01:15.419Z,974.68
2017-10-25T17:02:24.786Z,974.7
2017-10-25T17:03:34.146Z,974.7
2017-10-25T17:04:43.504Z,974.68
2017-10-25T17:05:52.533Z,974.71
2017-10-25T17:07:01.893Z,974.72
2017-10-25T17:08:11.260Z,974.71
2017-10-25T17:09:19.958Z,974.71
2017-10-25T17:10:28.995Z,974.75
2017-10-25T17:11:37.696Z,974.75
2017-10-25T17:12:46.399Z,974.78
2017-10-25T17:13:55.092Z,974.78
2017-10-25T17:15:05.147Z,974.76
2017-10-25T17:16:13.844Z,974.77
2017-10-25T17:17:22.541Z,974.8
2017-10-25T17:18:31.902Z,974.8
2017-10-25T17:19:40.937Z,974.8
2017-10-25T17:20:49.961Z,974.85
2017-10-25T17:21:58.658Z,974.84
2017-10-25T17:23:07.691Z,974.86
2017-10-25T17:24:16.392Z,974.89
2017-10-25T17:25:25.421Z,974.9
2017-10-25T17:26:34.462Z,974.9
2017-10-25T17:27:43.495Z,974.88
2017-10-25T17:28:52.194Z,974.9
2017-10-25T17:30:01.568Z,974.93
2017-10-25T17:31:11.602Z,974.96
2017-10-25T17:32:20.964Z,974.99
2017-10-25T17:33:30.996Z,975.06
2017-10-25T17:34:40.356Z,975.02
2017-10-25T17:35:49.714Z,975.07
2017-10-25T17:36:58.743Z,975.06
2017-10-25T17:38:07.781Z,975.11
2017-10-25T17:39:17.147Z,975.17
2017-10-25T17:40:26.179Z,975.15
2017-10-25T17:41:34.874Z,975.17
2017-10-25T17:42:43.902Z,975.15
2017-10-25T17:43:52.927Z,975.18
2017-10-25T17:45:01.620Z,975.16
2017-10-25T17:46:10.989Z,975.2
2017-10-25T17:47:20.350Z,975.24
2017-10-25T17:48:29.712Z,975.27
2017-10-25T17:49:38.409Z,975.31
2017-10-25T17:50:47.438Z,975.22
2017-10-25T17:51:56.470Z,975.21
2017-10-25T17:53:05.166Z,975.21
2017-10-25T17:54:14.211Z,975.26
2017-10-25T17:55:22.903Z,975.25
2017-10-25T17:56:31.602Z,975.24
2017-10-25T17:57:41.299Z,975.19
2017-10-25T17:58:50.030Z,975.2
2017-10-25T17:59:59.062Z,975.13
2017-10-25T18:01:08.096Z,975.15
2017-10-25T18:02:16.791Z,975.1
2017-10-25T18:03:25.489Z,975.06
2017-10-25T18:04:34.856Z,975.03
2017-10-25T18:05:44.583Z,975.06
2017-10-25T18:06:53.619Z,975.09
2017-10-25T18:08:02.318Z,975.08
2017-10-25T18:09:11.013Z,975.09
2017-10-25T18:10:20.045Z,975.05
2017-10-25T18:11:28.745Z,975.06
2017-10-25T18:12:37.444Z,975.1
2017-10-25T18:13:46.139Z,975.18
2017-10-25T18:14:54.835Z,975.13
2017-10-25T18:16:03.868Z,975.13
2017-10-25T18:17:12.899Z,975.18
2017-10-25T18:18:21.930Z,975.2
2017-10-25T18:19:31.297Z,975.21
2017-10-25T18:20:40.661Z,975.18
2017-10-25T18:21:49.355Z,975.13
2017-10-25T18:22:58.052Z,975.14
2017-10-25T18:24:07.411Z,975.12
2017-10-25T18:25:16.439Z,975.16
2017-10-25T18:26:25.467Z,975.18
2017-10-25T18:27:34.829Z,975.25
2017-10-25T18:28:43.861Z,975.27
2017-10-25T18:29:52.559Z,975.25
2017-10-25T18:31:01.260Z,975.24
2017-10-25T18:32:10.283Z,975.23
2017-10-25T18:33:19.660Z,975.27
2017-10-25T18:34:29.353Z,975.3
2017-10-25T18:35:38.385Z,975.35
2017-10-25T18:36:47.419Z,975.36
2017-10-25T18:37:56.777Z,975.41
2017-10-25T18:39:05.811Z,975.44
2017-10-25T18:40:15.523Z,975.38
2017-10-25T18:41:24.553Z,975.39
2017-10-25T18:42:34.254Z,975.4
2017-10-25T18:43:42.948Z,975.38
2017-10-25T18:44:51.977Z,975.39
2017-10-25T18:46:01.344Z,975.43
2017-10-25T18:47:11.706Z,975.46
2017-10-25T18:48:21.067Z,975.39
2017-10-25T18:49:30.095Z,975.46
2017-10-25T18:50:38.793Z,975.45
2017-10-25T18:51:47.490Z,975.46
2017-10-25T18:52:56.853Z,975.46
2017-10-25T18:54:05.550Z,975.43
2017-10-25T18:55:14.585Z,975.41
2017-10-25T18:56:23.614Z,975.41
2017-10-25T18:57:32.644Z,975.4
2017-10-25T18:58:42.494Z,975.42
2017-10-25T18:59:51.194Z,975.48
2017-10-25T19:01:00.555Z,975.47
2017-10-25T19:02:10.253Z,975.48
2017-10-25T19:03:19.636Z,975.5
2017-10-25T19:04:28.997Z,975.52
2017-10-25T19:05:37.694Z,975.58
2017-10-25T19:06:46.728Z,975.58
2017-10-25T19:07:55.766Z,975.59
2017-10-25T19:09:04.945Z,975.63
2017-10-25T19:10:14.639Z,975.63
2017-10-25T19:11:23.669Z,975.63
2017-10-25T19:12:32.702Z,975.63
2017-10-25T19:13:41.738Z,975.61
2017-10-25T19:14:50.774Z,975.6
2017-10-25T19:15:59.794Z,975.59
2017-10-25T19:17:08.825Z,975.57
2017-10-25T19:18:17.855Z,975.57
2017-10-25T19:19:27.215Z,975.55
2017-10-25T19:20:35.915Z,975.51
2017-10-25T19:21:44.951Z,975.55
2017-10-25T19:22:53.982Z,975.59
2017-10-25T19:24:03.681Z,975.56
2017-10-25T19:25:12.711Z,975.59
2017-10-25T19:26:21.743Z,975.59
2017-10-25T19:27:31.444Z,975.59
2017-10-25T19:28:40.469Z,975.63
2017-10-25T19:29:49.502Z,975.62
2017-10-25T19:30:59.195Z,975.63
2017-10-25T19:32:07.895Z,975.68
2017-10-25T19:33:17.264Z,975.67
2017-10-25T19:34:25.962Z,975.66
2017-10-25T19:35:34.657Z,975.66
2017-10-25T19:36:44.017Z,975.67
2017-10-25T19:37:53.407Z,975.73
2017-10-25T19:39:02.741Z,975.72
2017-10-25T19:40:12.107Z,975.73
2017-10-25T19:41:21.136Z,975.74
2017-10-25T19:42:30.825Z,975.77
2017-10-25T19:43:39.526Z,975.77
2017-10-25T19:44:48.572Z,975.71
2017-10-25T19:45:57.932Z,975.73
2017-10-25T19:47:06.970Z,975.81
2017-10-25T19:48:16.345Z,975.8
2017-10-25T19:49:25.376Z,975.74
2017-10-25T19:50:34.402Z,975.73
2017-10-25T19:51:43.430Z,975.72
2017-10-25T19:52:53.129Z,975.79
2017-10-25T19:54:02.841Z,975.87
2017-10-25T19:55:11.873Z,975.92
2017-10-25T19:56:21.242Z,975.92
2017-10-25T19:57:30.268Z,975.92
2017-10-25T19:58:39.962Z,975.87
2017-10-25T19:59:48.662Z,975.91
2017-10-25T20:00:57.361Z,975.94
2017-10-25T20:02:06.731Z,975.93
2017-10-25T20:03:16.098Z,975.93
2017-10-25T20:04:24.800Z,975.93
2017-10-25T20:05:34.177Z,975.87
2017-10-25T20:06:43.210Z,975.84
2017-10-25T20:07:52.904Z,975.81
2017-10-25T20:09:02.615Z,975.81
2017-10-25T20:10:12.309Z,975.85
2017-10-25T20:11:21.343Z,975.89
2017-10-25T20:12:30.384Z,975.94
2017-10-25T20:13:39.413Z,975.91
2017-10-25T20:14:48.108Z,975.85
2017-10-25T20:15:57.472Z,975.82
2017-10-25T20:17:06.502Z,975.81
2017-10-25T20:18:15.544Z,975.85
2017-10-25T20:19:24.906Z,975.94
2017-10-25T20:20:34.271Z,975.89
2017-10-25T20:21:43.635Z,975.87
2017-10-25T20:22:53.336Z,975.92
2017-10-25T20:24:03.040Z,975.98
2017-10-25T20:25:11.740Z,976.06
2017-10-25T20:26:20.435Z,976.07
2017-10-25T20:27:30.132Z,976.01
2017-10-25T20:28:39.829Z,975.95
2017-10-25T20:29:49.189Z,975.99
2017-10-25T20:30:58.890Z,976.01
2017-10-25T20:32:07.930Z,975.98
2017-10-25T20:33:16.965Z,976.04
2017-10-25T20:34:26.672Z,976
2017-10-25T20:35:36.029Z,975.99
2017-10-25T20:36:45.395Z,975.96
2017-10-25T20:37:54.423Z,975.97
2017-10-25T20:39:03.454Z,975.96
2017-10-25T20:40:12.489Z,975.99
2017-10-25T20:41:21.525Z,976
2017-10-25T20:42:30.891Z,976
2017-10-25T20:43:39.915Z,975.96
2017-10-25T20:44:48.615Z,976
2017-10-25T20:45:57.648Z,976.02
2017-10-25T20:47:06.344Z,976.03
2017-10-25T20:48:15.375Z,976.07
2017-10-25T20:49:24.405Z,976.04
2017-10-25T20:50:33.766Z,975.98
2017-10-25T20:51:42.797Z,975.99
2017-10-25T20:52:51.831Z,976.01
2017-10-25T20:54:00.543Z,976.05
2017-10-25T20:55:09.239Z,976.06
2017-10-25T20:56:18.614Z,976.11
2017-10-25T20:57:27.310Z,976.18
2017-10-25T20:58:36.673Z,976.17
2017-10-25T20:59:45.695Z,976.21
2017-10-25T21:00:54.728Z,976.26
2017-10-25T21:02:04.440Z,976.31
2017-10-25T21:03:13.473Z,976.3
2017-10-25T21:04:22.503Z,976.31
2017-10-25T21:05:31.202Z,976.29
2017-10-25T21:06:40.560Z,976.35
2017-10-25T21:07:49.260Z,976.36
2017-10-25T21:08:57.957Z,976.34
2017-10-25T21:10:07.650Z,976.27
2017-10-25T21:11:16.352Z,976.2
2017-10-25T21:12:25.970Z,976.18
2017-10-25T21:13:35.666Z,976.18
2017-10-25T21:14:44.692Z,976.14
2017-10-25T21:15:54.052Z,976.11
2017-10-25T21:17:03.406Z,976.08
2017-10-25T21:18:12.100Z,976.09
2017-10-25T21:19:21.137Z,976.17
2017-10-25T21:20:30.501Z,976.16
2017-10-25T21:21:39.535Z,976.17
2017-10-25T21:22:49.116Z,976.15
2017-10-25T21:23:57.815Z,976.17
2017-10-25T21:25:07.180Z,976.2
2017-10-25T21:26:16.212Z,976.34
2017-10-25T21:27:25.250Z,976.35
2017-10-25T21:28:34.277Z,976.38
2017-10-25T21:29:43.644Z,976.41
2017-10-25T21:30:52.681Z,976.36
2017-10-25T21:32:01.379Z,976.23
2017-10-25T21:33:10.088Z,976.26
2017-10-25T21:34:19.476Z,976.27
2017-10-25T21:35:28.838Z,976.27
2017-10-25T21:36:37.539Z,976.31
2017-10-25T21:37:46.577Z,976.27
2017-10-25T21:38:55.273Z,976.27
2017-10-25T21:40:03.973Z,976.29
2017-10-25T21:41:13.014Z,976.28
2017-10-25T21:42:22.045Z,976.26
2017-10-25T21:43:31.408Z,976.26
2017-10-25T21:44:40.775Z,976.29
2017-10-25T21:45:49.812Z,976.29
2017-10-25T21:46:59.191Z,976.29
2017-10-25T21:48:08.551Z,976.35
2017-10-25T21:49:17.248Z,976.35
2017-10-25T21:50:26.613Z,976.36
2017-10-25T21:51:35.646Z,976.34
2017-10-25T21:52:44.345Z,976.34
2017-10-25T21:53:53.048Z,976.32
2017-10-25T21:55:01.744Z,976.29
2017-10-25T21:56:10.788Z,976.29
2017-10-25T21:57:20.153Z,976.32
2017-10-25T21:58:29.182Z,976.33
2017-10-25T21:59:38.212Z,976.32
2017-10-25T22:00:47.240Z,976.27
2017-10-25T22:01:55.938Z,976.24
2017-10-25T22:03:04.634Z,976.22
2017-10-25T22:04:13.332Z,976.21
2017-10-25T22:05:22.370Z,976.26
2017-10-25T22:06:31.394Z,976.29
2017-10-25T22:07:40.757Z,976.29
2017-10-25T22:08:50.453Z,976.27
2017-10-25T22:09:59.149Z,976.31
2017-10-25T22:11:08.186Z,976.32
2017-10-25T22:12:17.219Z,976.36
2017-10-25T22:13:25.916Z,976.36
2017-10-25T22:14:34.617Z,976.39
2017-10-25T22:15:44.646Z,976.42
2017-10-25T22:16:53.343Z,976.37
2017-10-25T22:18:02.041Z,976.37
2017-10-25T22:19:11.409Z,976.42
2017-10-25T22:20:20.437Z,976.38
2017-10-25T22:21:29.139Z,976.34
2017-10-25T22:22:38.171Z,976.32
2017-10-25T22:23:47.200Z,976.29
2017-10-25T22:24:56.554Z,976.29
2017-10-25T22:26:05.250Z,976.23
2017-10-25T22:27:14.282Z,976.27
2017-10-25T22:28:23.654Z,976.33
2017-10-25T22:29:33.015Z,976.33
2017-10-25T22:30:42.376Z,976.33
2017-10-25T22:31:51.403Z,976.27
2017-10-25T22:33:00.098Z,976.25
2017-10-25T22:34:09.461Z,976.22
2017-10-25T22:35:19.155Z,976.2
2017-10-25T22:36:28.850Z,976.24
2017-10-25T22:37:37.888Z,976.28
2017-10-25T22:38:47.252Z,976.32
2017-10-25T22:39:55.951Z,976.32
2017-10-25T22:41:04.982Z,976.35
2017-10-25T22:42:14.340Z,976.37
2017-10-25T22:43:23.706Z,976.39
2017-10-25T22:44:32.403Z,976.34
2017-10-25T22:45:41.768Z,976.31
2017-10-25T22:46:51.123Z,976.31
2017-10-25T22:48:00.166Z,976.33
2017-10-25T22:49:09.528Z,976.37
2017-10-25T22:50:19.225Z,976.31
2017-10-25T22:51:28.261Z,976.35
2017-10-25T22:52:36.958Z,976.35
2017-10-25T22:53:45.987Z,976.36
2017-10-25T22:54:55.016Z,976.34
2017-10-25T22:56:04.712Z,976.41
2017-10-25T22:57:14.075Z,976.4
2017-10-25T22:58:23.106Z,976.41
2017-10-25T22:59:32.801Z,976.43
2017-10-25T23:00:41.833Z,976.41
2017-10-25T23:01:50.855Z,976.38
2017-10-25T23:03:00.220Z,976.36
2017-10-25T23:04:10.253Z,976.41
2017-10-25T23:05:19.952Z,976.46
2017-10-25T23:06:29.306Z,976.43
2017-10-25T23:07:39.349Z,976.41
2017-10-25T23:08:48.713Z,976.41
2017-10-25T23:09:58.085Z,976.45
2017-10-25T23:11:07.117Z,976.48
2017-10-25T23:12:16.472Z,976.48
2017-10-25T23:13:25.502Z,976.48
2017-10-25T23:14:34.200Z,976.45
2017-10-25T23:15:43.569Z,976.49
2017-10-25T23:16:52.596Z,976.51
2017-10-25T23:18:01.629Z,976.44
2017-10-25T23:19:10.990Z,976.51
2017-10-25T23:20:20.361Z,976.53
2017-10-25T23:21:30.391Z,976.49
2017-10-25T23:22:40.101Z,976.49
2017-10-25T23:23:48.799Z,976.44
2017-10-25T23:24:58.503Z,976.39
2017-10-25T23:26:07.862Z,976.38
2017-10-25T23:27:16.906Z,976.39
2017-10-25T23:28:25.587Z,976.43
2017-10-25T23:29:34.284Z,976.44
2017-10-25T23:30:42.980Z,976.45
2017-10-25T23:31:52.345Z,976.51
2017-10-25T23:33:01.371Z,976.55
2017-10-25T23:34:10.410Z,976.52
2017-10-25T23:35:19.761Z,976.52
2017-10-25T23:36:29.473Z,976.48
2017-10-25T23:37:38.500Z,976.46
2017-10-25T23:38:47.532Z,976.47
2017-10-25T23:39:56.562Z,976.4
2017-10-25T23:41:05.594Z,976.43
2017-10-25T23:42:14.290Z,976.46
2017-10-25T23:43:23.320Z,976.46
2017-10-25T23:44:33.013Z,976.47
2017-10-25T23:45:41.709Z,976.5
2017-10-25T23:46:51.406Z,976.48
2017-10-25T23:48:00.490Z,976.46
2017-10-25T23:49:09.523Z,976.44
2017-10-25T23:50:18.889Z,976.46
2017-10-25T23:51:27.581Z,976.43
2017-10-25T23:52:37.275Z,976.43
2017-10-25T23:53:46.304Z,976.43
2017-10-25T23:54:55.328Z,976.38
2017-10-25T23:56:04.387Z,976.33
2017-10-25T23:57:13.085Z,976.32
2017-10-25T23:58:22.112Z,976.33
2017-10-25T23:59:31.140Z,976.33
